ACA168 KPHL-KDCA
Flight info
| Callsign | ACA168 |
|---|---|
| Flight time | 0h 28m |
| Altitude | 22000 |
| Route | DQO BAINS SUDOY CLIPR CLIPR3 |
| Aircraft | B77W/H-SDE1E2E3FGHIJ2J3J4J5M1RWXY/LB1D1 |
Departure
| Time | 2026-04-23 21:49 |
|---|---|
| Airport | Philadelphia International Airport (KPHL) |
Arrival
| Time | 2026-04-23 22:17 |
|---|---|
| Airport | Ronald Reagan Washington National Airport (KDCA) |
| Time | Latitude | Longitude | Altitude | Speed | Heading |
|---|---|---|---|---|---|
| 2026-04-23 21:19 | 39.87299 | -75.24791 | 24 ft | 0 kts | 39° |
| 2026-04-23 21:38 | 39.87289 | -75.24801 | 25 ft | 3 kts | 39° |
| 2026-04-23 21:38 | 39.87274 | -75.24817 | 24 ft | 3 kts | 39° |
| 2026-04-23 21:39 | 39.87259 | -75.24833 | 21 ft | 3 kts | 39° |
| 2026-04-23 21:39 | 39.87246 | -75.24852 | 24 ft | 3 kts | 73° |
| 2026-04-23 21:39 | 39.87244 | -75.24876 | 23 ft | 3 kts | 108° |
| 2026-04-23 21:39 | 39.87248 | -75.24889 | 25 ft | 0 kts | 123° |
| 2026-04-23 21:42 | 39.87247 | -75.24887 | 25 ft | 1 kts | 125° |
| 2026-04-23 21:42 | 39.87232 | -75.24878 | 23 ft | 4 kts | 159° |
| 2026-04-23 21:42 | 39.87194 | -75.24862 | 23 ft | 8 kts | 163° |
| 2026-04-23 21:42 | 39.87133 | -75.24851 | 24 ft | 10 kts | 205° |
| 2026-04-23 21:43 | 39.87105 | -75.24951 | 19 ft | 15 kts | 257° |
| 2026-04-23 21:43 | 39.87076 | -75.25101 | 19 ft | 19 kts | 255° |
| 2026-04-23 21:43 | 39.87040 | -75.25271 | 25 ft | 20 kts | 255° |
| 2026-04-23 21:43 | 39.87007 | -75.25441 | 25 ft | 18 kts | 257° |
| 2026-04-23 21:44 | 39.86965 | -75.25597 | 27 ft | 18 kts | 260° |
| 2026-04-23 21:44 | 39.86941 | -75.25754 | 30 ft | 10 kts | 241° |
| 2026-04-23 21:44 | 39.86935 | -75.25762 | 28 ft | 2 kts | 221° |
| 2026-04-23 21:44 | 39.86915 | -75.25768 | 30 ft | 5 kts | 178° |
| 2026-04-23 21:45 | 39.86860 | -75.25747 | 28 ft | 12 kts | 164° |
| 2026-04-23 21:45 | 39.86749 | -75.25711 | 28 ft | 21 kts | 166° |
| 2026-04-23 21:45 | 39.86599 | -75.25655 | 25 ft | 18 kts | 147° |
| 2026-04-23 21:45 | 39.86596 | -75.25522 | 26 ft | 18 kts | 78° |
| 2026-04-23 21:46 | 39.86632 | -75.25330 | 29 ft | 26 kts | 76° |
| 2026-04-23 21:46 | 39.86681 | -75.25075 | 27 ft | 33 kts | 76° |
| 2026-04-23 21:46 | 39.86743 | -75.24768 | 30 ft | 32 kts | 74° |
| 2026-04-23 21:46 | 39.86799 | -75.24493 | 25 ft | 26 kts | 75° |
| 2026-04-23 21:47 | 39.86847 | -75.24256 | 27 ft | 28 kts | 75° |
| 2026-04-23 21:47 | 39.86888 | -75.24052 | 30 ft | 22 kts | 75° |
| 2026-04-23 21:47 | 39.86898 | -75.23981 | 29 ft | 0 kts | 94° |
| 2026-04-23 21:48 | 39.86898 | -75.23978 | 29 ft | 2 kts | 95° |
| 2026-04-23 21:48 | 39.86871 | -75.23939 | 26 ft | 10 kts | 162° |
| 2026-04-23 21:48 | 39.86799 | -75.23937 | 27 ft | 11 kts | 219° |
| 2026-04-23 21:48 | 39.86768 | -75.24070 | 21 ft | 27 kts | 255° |
| 2026-04-23 21:49 | 39.86655 | -75.24652 | 28 ft | 115 kts | 256° |
| 2026-04-23 21:49 | 39.86370 | -75.26035 | 133 ft | 192 kts | 256° |
| 2026-04-23 21:49 | 39.85983 | -75.27887 | 638 ft | 232 kts | 256° |
| 2026-04-23 21:49 | 39.85350 | -75.29982 | 1061 ft | 269 kts | 241° |
| 2026-04-23 21:50 | 39.84270 | -75.31966 | 1693 ft | 258 kts | 234° |
| 2026-04-23 21:50 | 39.83172 | -75.33784 | 2281 ft | 256 kts | 234° |
| 2026-04-23 21:50 | 39.82074 | -75.35608 | 3025 ft | 257 kts | 235° |
| 2026-04-23 21:50 | 39.80979 | -75.37463 | 3929 ft | 261 kts | 236° |
| 2026-04-23 21:51 | 39.79897 | -75.39333 | 4666 ft | 261 kts | 236° |
| 2026-04-23 21:51 | 39.78805 | -75.41230 | 5168 ft | 264 kts | 236° |
| 2026-04-23 21:51 | 39.77711 | -75.43147 | 5994 ft | 266 kts | 237° |
| 2026-04-23 21:51 | 39.76602 | -75.45105 | 6996 ft | 273 kts | 238° |
| 2026-04-23 21:52 | 39.75465 | -75.47122 | 8006 ft | 279 kts | 238° |
| 2026-04-23 21:52 | 39.74699 | -75.48479 | 8669 ft | 282 kts | 238° |
| 2026-04-23 21:52 | 39.73535 | -75.50541 | 9719 ft | 285 kts | 239° |
| 2026-04-23 21:52 | 39.72357 | -75.52629 | 10689 ft | 288 kts | 239° |
| 2026-04-23 21:53 | 39.71170 | -75.54732 | 11690 ft | 289 kts | 240° |
| 2026-04-23 21:53 | 39.69974 | -75.56849 | 12697 ft | 291 kts | 240° |
| 2026-04-23 21:53 | 39.68781 | -75.59018 | 13522 ft | 303 kts | 245° |
| 2026-04-23 21:53 | 39.67832 | -75.61544 | 13801 ft | 329 kts | 255° |
| 2026-04-23 21:54 | 39.67218 | -75.64520 | 14081 ft | 353 kts | 265° |
| 2026-04-23 21:54 | 39.66836 | -75.67721 | 14925 ft | 363 kts | 266° |
| 2026-04-23 21:54 | 39.66457 | -75.70994 | 15956 ft | 369 kts | 266° |
| 2026-04-23 21:54 | 39.66062 | -75.74307 | 17077 ft | 374 kts | 265° |
| 2026-04-23 21:55 | 39.65507 | -75.78822 | 17993 ft | 381 kts | 265° |
| 2026-04-23 21:55 | 39.65222 | -75.81084 | 17996 ft | 386 kts | 265° |
| 2026-04-23 21:55 | 39.64783 | -75.84525 | 17999 ft | 386 kts | 265° |
| 2026-04-23 21:55 | 39.64342 | -75.87956 | 17994 ft | 384 kts | 265° |
| 2026-04-23 21:56 | 39.63902 | -75.91377 | 17996 ft | 383 kts | 265° |
| 2026-04-23 21:56 | 39.63457 | -75.94785 | 17993 ft | 382 kts | 265° |
| 2026-04-23 21:56 | 39.63392 | -75.98153 | 17990 ft | 374 kts | 283° |
| 2026-04-23 21:56 | 39.64276 | -76.01306 | 17998 ft | 371 kts | 297° |
| 2026-04-23 21:57 | 39.65375 | -76.04368 | 17997 ft | 376 kts | 296° |
| 2026-04-23 21:57 | 39.66439 | -76.07437 | 17978 ft | 371 kts | 290° |
| 2026-04-23 21:57 | 39.66824 | -76.10775 | 17995 ft | 381 kts | 273° |
| 2026-04-23 21:57 | 39.66489 | -76.14203 | 17992 ft | 382 kts | 261° |
| 2026-04-23 21:58 | 39.65581 | -76.17426 | 17784 ft | 383 kts | 246° |
| 2026-04-23 21:58 | 39.64067 | -76.20306 | 17264 ft | 386 kts | 238° |
| 2026-04-23 21:58 | 39.62482 | -76.23100 | 16730 ft | 382 kts | 240° |
| 2026-04-23 21:58 | 39.60985 | -76.25858 | 16204 ft | 377 kts | 240° |
| 2026-04-23 21:59 | 39.59500 | -76.28646 | 15666 ft | 371 kts | 240° |
| 2026-04-23 21:59 | 39.57764 | -76.31123 | 15128 ft | 374 kts | 223° |
| 2026-04-23 21:59 | 39.55574 | -76.32930 | 14649 ft | 370 kts | 217° |
| 2026-04-23 22:00 | 39.51285 | -76.36548 | 13628 ft | 366 kts | 219° |
| 2026-04-23 22:00 | 39.49179 | -76.38390 | 13055 ft | 365 kts | 219° |
| 2026-04-23 22:00 | 39.47081 | -76.40221 | 12525 ft | 363 kts | 219° |
| 2026-04-23 22:00 | 39.44988 | -76.42039 | 12000 ft | 361 kts | 219° |
| 2026-04-23 22:01 | 39.42928 | -76.43823 | 11852 ft | 351 kts | 219° |
| 2026-04-23 22:01 | 39.40903 | -76.45576 | 11714 ft | 353 kts | 219° |
| 2026-04-23 22:01 | 39.38850 | -76.47359 | 11566 ft | 359 kts | 219° |
| 2026-04-23 22:01 | 39.36765 | -76.49167 | 11457 ft | 361 kts | 218° |
| 2026-04-23 22:02 | 39.34711 | -76.50943 | 11287 ft | 359 kts | 218° |
| 2026-04-23 22:02 | 39.32640 | -76.52732 | 11146 ft | 356 kts | 218° |
| 2026-04-23 22:02 | 39.30590 | -76.54503 | 11000 ft | 354 kts | 218° |
| 2026-04-23 22:02 | 39.28543 | -76.56269 | 10844 ft | 352 kts | 218° |
| 2026-04-23 22:03 | 39.26516 | -76.58018 | 10673 ft | 347 kts | 218° |
| 2026-04-23 22:03 | 39.24539 | -76.59719 | 10512 ft | 335 kts | 218° |
| 2026-04-23 22:03 | 39.22630 | -76.61363 | 10376 ft | 324 kts | 218° |
| 2026-04-23 22:03 | 39.20784 | -76.62953 | 10236 ft | 314 kts | 219° |
| 2026-04-23 22:04 | 39.18995 | -76.64490 | 10108 ft | 304 kts | 219° |
| 2026-04-23 22:04 | 39.17283 | -76.65963 | 9995 ft | 295 kts | 219° |
| 2026-04-23 22:04 | 39.15693 | -76.67572 | 9844 ft | 286 kts | 227° |
| 2026-04-23 22:04 | 39.14256 | -76.69291 | 9719 ft | 278 kts | 229° |
| 2026-04-23 22:05 | 39.12868 | -76.71000 | 9576 ft | 274 kts | 229° |
| 2026-04-23 22:05 | 39.11488 | -76.72689 | 9472 ft | 272 kts | 229° |
| 2026-04-23 22:05 | 39.10158 | -76.74295 | 9238 ft | 252 kts | 229° |
| 2026-04-23 22:05 | 39.08903 | -76.75797 | 9042 ft | 243 kts | 229° |
| 2026-04-23 22:06 | 39.07672 | -76.77272 | 8867 ft | 241 kts | 228° |
| 2026-04-23 22:06 | 39.06441 | -76.78742 | 8548 ft | 243 kts | 228° |
| 2026-04-23 22:06 | 39.05172 | -76.80256 | 7963 ft | 255 kts | 227° |
| 2026-04-23 22:06 | 39.03854 | -76.81822 | 7363 ft | 257 kts | 226° |
| 2026-04-23 22:07 | 39.02585 | -76.83316 | 7132 ft | 237 kts | 226° |
| 2026-04-23 22:07 | 39.01407 | -76.84705 | 6964 ft | 227 kts | 226° |
| 2026-04-23 22:07 | 39.00217 | -76.86113 | 6724 ft | 235 kts | 226° |
| 2026-04-23 22:07 | 38.99011 | -76.87538 | 6175 ft | 236 kts | 225° |
| 2026-04-23 22:08 | 38.97831 | -76.88930 | 5685 ft | 229 kts | 225° |
| 2026-04-23 22:08 | 38.96652 | -76.90281 | 5178 ft | 225 kts | 223° |
| 2026-04-23 22:08 | 38.95444 | -76.91552 | 4697 ft | 224 kts | 220° |
| 2026-04-23 22:08 | 38.94204 | -76.92846 | 4242 ft | 234 kts | 221° |
| 2026-04-23 22:09 | 38.92839 | -76.93904 | 3825 ft | 229 kts | 198° |
| 2026-04-23 22:09 | 38.91268 | -76.94087 | 3476 ft | 225 kts | 183° |
| 2026-04-23 22:09 | 38.89705 | -76.94121 | 3136 ft | 225 kts | 184° |
| 2026-04-23 22:09 | 38.88139 | -76.94163 | 3002 ft | 226 kts | 183° |
| 2026-04-23 22:10 | 38.86554 | -76.94211 | 3007 ft | 228 kts | 183° |
| 2026-04-23 22:10 | 38.84965 | -76.94256 | 2992 ft | 227 kts | 183° |
| 2026-04-23 22:10 | 38.83389 | -76.94301 | 2996 ft | 226 kts | 184° |
| 2026-04-23 22:10 | 38.81808 | -76.94349 | 2994 ft | 228 kts | 183° |
| 2026-04-23 22:11 | 38.80229 | -76.94396 | 2984 ft | 226 kts | 184° |
| 2026-04-23 22:11 | 38.78664 | -76.94444 | 2999 ft | 225 kts | 184° |
| 2026-04-23 22:11 | 38.77092 | -76.94435 | 2988 ft | 227 kts | 179° |
| 2026-04-23 22:11 | 38.75519 | -76.94274 | 2998 ft | 227 kts | 178° |
| 2026-04-23 22:12 | 38.73961 | -76.94103 | 3002 ft | 228 kts | 177° |
| 2026-04-23 22:12 | 38.72370 | -76.93945 | 2991 ft | 229 kts | 180° |
| 2026-04-23 22:12 | 38.70852 | -76.94320 | 2870 ft | 222 kts | 211° |
| 2026-04-23 22:12 | 38.69774 | -76.95650 | 2632 ft | 214 kts | 244° |
| 2026-04-23 22:13 | 38.69429 | -76.97465 | 2393 ft | 209 kts | 266° |
| 2026-04-23 22:13 | 38.69381 | -76.99318 | 2151 ft | 208 kts | 275° |
| 2026-04-23 22:13 | 38.69798 | -77.01054 | 2047 ft | 202 kts | 288° |
| 2026-04-23 22:13 | 38.70098 | -77.02813 | 1997 ft | 204 kts | 288° |
| 2026-04-23 22:14 | 38.70943 | -77.04263 | 1994 ft | 210 kts | 325° |
| 2026-04-23 22:14 | 38.72354 | -77.04785 | 1976 ft | 219 kts | 0° |
| 2026-04-23 22:14 | 38.73794 | -77.04153 | 1984 ft | 222 kts | 28° |
| 2026-04-23 22:14 | 38.75185 | -77.03321 | 1744 ft | 217 kts | 12° |
| 2026-04-23 22:15 | 38.76636 | -77.03058 | 1471 ft | 205 kts | 359° |
| 2026-04-23 22:15 | 38.78010 | -77.03055 | 1196 ft | 189 kts | 354° |
| 2026-04-23 22:15 | 38.79299 | -77.03181 | 992 ft | 181 kts | 352° |
| 2026-04-23 22:15 | 38.80477 | -77.03304 | 755 ft | 156 kts | 353° |
| 2026-04-23 22:16 | 38.81504 | -77.03407 | 568 ft | 141 kts | 354° |
| 2026-04-23 22:16 | 38.82461 | -77.03513 | 368 ft | 136 kts | 354° |
| 2026-04-23 22:16 | 38.83412 | -77.03623 | 211 ft | 139 kts | 3° |
| 2026-04-23 22:16 | 38.84354 | -77.03700 | 33 ft | 135 kts | 358° |
| 2026-04-23 22:17 | 38.85160 | -77.03776 | 29 ft | 91 kts | 355° |
| 2026-04-23 22:17 | 38.85565 | -77.03816 | 31 ft | 53 kts | 356° |
| 2026-04-23 22:17 | 38.85856 | -77.03844 | 32 ft | 22 kts | 347° |
| 2026-04-23 22:17 | 38.85924 | -77.03966 | 32 ft | 0 kts | 275° |
| 2026-04-23 22:18 | 38.85924 | -77.03968 | 32 ft | 0 kts | 275° |
| 2026-04-23 22:19 | 38.85926 | -77.03991 | 32 ft | 5 kts | 278° |
| 2026-04-23 22:19 | 38.85927 | -77.04056 | 31 ft | 7 kts | 242° |
| 2026-04-23 22:19 | 38.85872 | -77.04063 | 31 ft | 10 kts | 176° |
| 2026-04-23 22:19 | 38.85787 | -77.04056 | 33 ft | 7 kts | 180° |
| 2026-04-23 22:20 | 38.85750 | -77.04094 | 34 ft | 10 kts | 244° |
| 2026-04-23 22:20 | 38.85741 | -77.04145 | 34 ft | 12 kts | 259° |
| 2026-04-23 22:20 | 38.85708 | -77.04250 | 33 ft | 10 kts | 217° |
| 2026-04-23 22:20 | 38.85673 | -77.04268 | 32 ft | 0 kts | 184° |